createdAt,value
2023-04-26T00:01:55.164Z,35.34
2023-04-26T00:04:21.955Z,35.35
2023-04-26T00:06:49.280Z,35.42
2023-04-26T00:09:16.511Z,35.44
2023-04-26T00:11:43.043Z,35.42
2023-04-26T00:14:09.515Z,35.48
2023-04-26T00:16:36.249Z,35.27
2023-04-26T00:19:03.848Z,35.38
2023-04-26T00:21:30.675Z,35.55
2023-04-26T00:23:57.738Z,35.33
2023-04-26T00:26:24.896Z,35.42
2023-04-26T00:28:51.626Z,35.35
2023-04-26T00:31:18.470Z,35.54
2023-04-26T00:33:45.145Z,35.49
2023-04-26T00:36:13.164Z,35.40
2023-04-26T00:38:39.762Z,35.45
2023-04-26T00:41:06.329Z,35.45
2023-04-26T00:43:32.881Z,35.39
2023-04-26T00:45:59.688Z,35.43
2023-04-26T00:48:26.351Z,35.44
2023-04-26T00:50:52.843Z,35.48
2023-04-26T00:53:19.484Z,35.41
2023-04-26T00:55:46.210Z,35.37
2023-04-26T00:58:12.795Z,35.36
2023-04-26T01:00:39.356Z,35.41
2023-04-26T01:03:06.173Z,35.40
2023-04-26T01:05:32.924Z,35.38
2023-04-26T01:08:02.186Z,35.38
2023-04-26T01:10:29.049Z,35.49
2023-04-26T01:12:57.904Z,35.38
2023-04-26T01:15:25.853Z,35.63
2023-04-26T01:17:52.483Z,35.49
2023-04-26T01:20:19.207Z,35.36
2023-04-26T01:22:45.755Z,35.57
2023-04-26T01:25:13.061Z,35.39
2023-04-26T01:27:39.955Z,35.34
2023-04-26T01:30:07.219Z,35.56
2023-04-26T01:32:34.967Z,35.47
2023-04-26T01:35:02.161Z,35.40
2023-04-26T01:37:28.859Z,35.45
2023-04-26T01:39:55.830Z,35.34
2023-04-26T01:42:22.417Z,35.26
2023-04-26T01:44:49.002Z,35.32
2023-04-26T01:47:15.762Z,35.37
2023-04-26T01:49:42.349Z,35.30
2023-04-26T01:52:08.915Z,35.33
2023-04-26T01:54:35.602Z,35.28
2023-04-26T01:57:02.807Z,35.23
2023-04-26T01:59:29.418Z,35.33
2023-04-26T02:01:55.989Z,35.23
2023-04-26T02:04:24.115Z,35.40
2023-04-26T02:06:50.682Z,35.51
2023-04-26T02:09:18.307Z,35.32
2023-04-26T02:11:45.127Z,35.41
2023-04-26T02:14:11.973Z,35.33
2023-04-26T02:16:40.062Z,35.39
2023-04-26T02:19:10.886Z,35.38
2023-04-26T02:21:58.143Z,35.24
2023-04-26T02:24:25.467Z,35.28
2023-04-26T02:26:53.057Z,35.24
2023-04-26T02:29:26.620Z,35.26
2023-04-26T02:32:02.756Z,35.26
2023-04-26T02:34:29.482Z,35.27
2023-04-26T02:36:56.053Z,35.26
2023-04-26T02:39:22.803Z,35.33
2023-04-26T02:41:49.351Z,35.24
2023-04-26T02:44:15.871Z,35.21
2023-04-26T02:46:42.553Z,35.20
2023-04-26T02:49:09.220Z,35.33
2023-04-26T02:51:35.898Z,35.08
2023-04-26T02:54:04.581Z,35.21
2023-04-26T02:56:32.316Z,35.17
2023-04-26T02:58:59.019Z,35.23
2023-04-26T03:01:25.617Z,35.26
2023-04-26T03:03:52.446Z,35.36
2023-04-26T03:06:19.054Z,35.34
2023-04-26T03:08:45.622Z,35.34
2023-04-26T03:11:12.398Z,35.33
2023-04-26T03:13:38.931Z,35.22
2023-04-26T03:16:06.285Z,35.31
2023-04-26T03:18:32.883Z,35.30
2023-04-26T03:20:59.433Z,35.23
2023-04-26T03:23:26.394Z,35.28
2023-04-26T03:25:53.000Z,35.40
2023-04-26T03:28:19.551Z,35.24
2023-04-26T03:30:46.092Z,35.34
2023-04-26T03:33:13.522Z,35.34
2023-04-26T03:35:40.143Z,35.25
2023-04-26T03:38:06.636Z,35.26
2023-04-26T03:40:33.157Z,35.37
2023-04-26T03:42:59.685Z,35.17
2023-04-26T03:45:26.927Z,35.38
2023-04-26T03:47:53.627Z,35.47
2023-04-26T03:50:20.630Z,35.26
2023-04-26T03:52:47.171Z,35.21
2023-04-26T03:55:13.793Z,35.33
2023-04-26T03:57:40.327Z,35.33
2023-04-26T04:00:11.865Z,35.33
2023-04-26T04:02:38.571Z,35.29
2023-04-26T04:05:05.705Z,34.98
2023-04-26T04:07:35.184Z,35.31
2023-04-26T04:10:02.011Z,35.19
2023-04-26T04:12:28.647Z,35.52
2023-04-26T04:14:55.238Z,35.44
2023-04-26T04:17:21.765Z,35.65
2023-04-26T04:19:48.316Z,35.57
2023-04-26T04:22:14.790Z,35.55
2023-04-26T04:24:42.444Z,35.69
2023-04-26T04:27:08.981Z,35.67
2023-04-26T04:29:35.464Z,35.65
2023-04-26T04:32:02.285Z,35.78
2023-04-26T04:34:28.889Z,35.77
2023-04-26T04:36:55.373Z,35.92
2023-04-26T04:39:22.047Z,35.92
2023-04-26T04:41:48.938Z,35.90
2023-04-26T04:44:16.374Z,36.08
2023-04-26T04:46:46.056Z,36.07
2023-04-26T04:49:13.005Z,35.90
2023-04-26T04:51:39.868Z,35.86
2023-04-26T04:54:14.482Z,35.88
2023-04-26T04:56:41.370Z,36.12
2023-04-26T04:59:08.546Z,35.71
2023-04-26T05:01:37.144Z,35.99
2023-04-26T05:04:03.928Z,36.03
2023-04-26T05:06:32.178Z,35.89
2023-04-26T05:08:59.450Z,35.94
2023-04-26T05:11:26.283Z,35.89
2023-04-26T05:13:52.980Z,36.00
2023-04-26T05:16:19.655Z,36.00
2023-04-26T05:18:46.831Z,35.99
2023-04-26T05:21:13.376Z,36.03
2023-04-26T05:23:39.910Z,36.20
2023-04-26T05:26:07.307Z,36.04
2023-04-26T05:28:34.344Z,35.96
2023-04-26T05:31:01.897Z,36.04
2023-04-26T05:33:29.023Z,36.27
2023-04-26T05:35:57.952Z,36.24
2023-04-26T05:38:24.835Z,36.04
2023-04-26T05:40:51.776Z,36.19
2023-04-26T05:43:18.396Z,36.18
2023-04-26T05:45:56.104Z,36.06
2023-04-26T05:48:24.080Z,36.09
2023-04-26T05:50:51.843Z,36.05
2023-04-26T05:53:19.415Z,36.09
2023-04-26T05:55:45.944Z,36.20
2023-04-26T05:58:12.457Z,36.14
2023-04-26T06:00:39.347Z,35.99
2023-04-26T06:03:06.342Z,36.19
2023-04-26T06:05:33.173Z,36.08
2023-04-26T06:08:00.049Z,36.10
2023-04-26T06:10:26.856Z,36.19
2023-04-26T06:12:53.438Z,36.29
2023-04-26T06:15:20.110Z,36.13
2023-04-26T06:17:46.742Z,36.19
2023-04-26T06:20:13.340Z,36.17
2023-04-26T06:22:39.924Z,36.09
2023-04-26T06:25:07.855Z,36.16
2023-04-26T06:27:34.502Z,36.30
2023-04-26T06:30:01.060Z,36.26
2023-04-26T06:32:27.665Z,36.37
2023-04-26T06:34:55.048Z,36.43
2023-04-26T06:37:21.678Z,36.35
2023-04-26T06:39:48.282Z,36.49
2023-04-26T06:42:15.005Z,36.44
2023-04-26T06:44:41.485Z,36.47
2023-04-26T06:47:09.470Z,36.44
2023-04-26T06:49:36.303Z,36.51
2023-04-26T06:52:03.075Z,36.55
2023-04-26T06:54:30.702Z,36.62
2023-04-26T06:56:58.386Z,36.74
2023-04-26T06:59:25.948Z,36.66
2023-04-26T07:01:53.153Z,36.66
2023-04-26T07:04:20.814Z,36.73
2023-04-26T07:06:47.577Z,36.84
2023-04-26T07:09:14.288Z,36.90
2023-04-26T07:11:40.803Z,36.61
2023-04-26T07:14:07.508Z,36.78
2023-04-26T07:16:34.176Z,36.77
2023-04-26T07:19:01.009Z,36.75
2023-04-26T07:21:27.631Z,36.75
2023-04-26T07:23:55.982Z,37.06
2023-04-26T07:26:23.444Z,36.92
2023-04-26T07:28:53.447Z,36.80
2023-04-26T07:31:20.312Z,37.03
2023-04-26T07:33:47.033Z,36.89
2023-04-26T07:36:13.686Z,36.99
2023-04-26T07:38:40.470Z,37.12
2023-04-26T07:41:07.112Z,37.06
2023-04-26T07:43:33.687Z,37.19
2023-04-26T07:46:02.122Z,36.99
2023-04-26T07:48:29.106Z,37.17
2023-04-26T07:50:55.889Z,37.09
2023-04-26T07:53:22.825Z,36.99
2023-04-26T07:55:51.465Z,37.08
2023-04-26T07:58:19.333Z,37.22
2023-04-26T08:00:46.170Z,37.14
2023-04-26T08:03:17.011Z,37.29
2023-04-26T08:05:44.492Z,36.89
2023-04-26T08:08:11.417Z,37.16
2023-04-26T08:10:41.598Z,37.17
2023-04-26T08:13:08.349Z,37.11
2023-04-26T08:15:34.953Z,37.09
2023-04-26T08:18:01.556Z,37.15
2023-04-26T08:20:28.079Z,37.05
2023-04-26T08:22:57.542Z,37.18
2023-04-26T08:25:24.814Z,37.17
2023-04-26T08:27:52.491Z,40.13
2023-04-26T08:30:19.529Z,41.47
2023-04-26T08:32:46.587Z,41.21
2023-04-26T08:35:13.380Z,40.64
2023-04-26T08:37:39.974Z,40.71
2023-04-26T08:40:11.120Z,40.25
2023-04-26T08:42:43.939Z,40.61
2023-04-26T08:45:13.725Z,40.33
2023-04-26T08:47:47.645Z,41.97
2023-04-26T08:50:15.824Z,42.29
2023-04-26T08:52:43.239Z,45.26
2023-04-26T08:55:10.829Z,45.26
2023-04-26T08:57:38.125Z,45.47
2023-04-26T09:00:05.885Z,44.93
2023-04-26T09:02:33.168Z,44.76
2023-04-26T09:05:00.245Z,44.34
2023-04-26T09:07:32.645Z,43.96
2023-04-26T09:09:59.862Z,43.25
2023-04-26T09:12:26.543Z,43.13
2023-04-26T09:14:53.287Z,42.77
2023-04-26T09:17:27.096Z,42.38
2023-04-26T09:19:54.630Z,42.44
2023-04-26T09:22:31.608Z,42.10
2023-04-26T09:24:59.424Z,41.97
2023-04-26T09:27:33.151Z,41.79
2023-04-26T09:29:59.888Z,41.64
2023-04-26T09:32:27.031Z,41.40
2023-04-26T09:34:53.695Z,41.67
2023-04-26T09:37:20.284Z,41.53
2023-04-26T09:39:46.813Z,41.18
2023-04-26T09:42:18.561Z,41.17
2023-04-26T09:44:45.182Z,41.09
2023-04-26T09:47:12.408Z,41.00
2023-04-26T09:49:50.234Z,40.92
2023-04-26T09:52:18.363Z,40.74
2023-04-26T09:54:53.225Z,40.87
2023-04-26T09:57:22.358Z,40.37
2023-04-26T09:59:54.336Z,40.43
2023-04-26T10:02:27.252Z,40.09
2023-04-26T10:04:56.886Z,39.96
2023-04-26T10:07:25.291Z,39.83
2023-04-26T10:09:51.889Z,39.71
2023-04-26T10:12:20.164Z,39.75
2023-04-26T10:14:47.007Z,39.74
2023-04-26T10:17:14.348Z,39.53
2023-04-26T10:19:46.579Z,39.41
2023-04-26T10:22:25.976Z,39.35
2023-04-26T10:24:54.500Z,39.23
2023-04-26T10:27:47.970Z,39.09
2023-04-26T10:30:16.544Z,38.97
2023-04-26T10:32:53.053Z,39.11
2023-04-26T10:35:20.188Z,39.17
2023-04-26T10:38:02.006Z,38.93
2023-04-26T10:40:40.914Z,38.85
2023-04-26T10:43:16.291Z,38.85
2023-04-26T10:45:43.996Z,38.94
2023-04-26T10:48:21.951Z,39.07
2023-04-26T10:51:12.906Z,39.06
2023-04-26T10:53:48.361Z,39.09
2023-04-26T10:56:23.880Z,38.93
2023-04-26T10:59:22.481Z,38.90
2023-04-26T11:01:54.579Z,38.90
2023-04-26T11:04:21.399Z,38.73
2023-04-26T11:06:52.567Z,38.86
2023-04-26T11:09:35.015Z,38.69
2023-04-26T11:12:02.584Z,38.84
2023-04-26T11:14:30.394Z,38.66
2023-04-26T11:16:57.205Z,38.66
2023-04-26T11:19:23.744Z,38.61
2023-04-26T11:21:50.664Z,38.82
2023-04-26T11:24:17.327Z,38.83
2023-04-26T11:26:51.697Z,38.83
2023-04-26T11:29:21.520Z,38.62
2023-04-26T11:31:58.810Z,38.91
2023-04-26T11:34:35.851Z,38.78
2023-04-26T11:37:04.706Z,38.53
2023-04-26T11:39:32.398Z,38.76
2023-04-26T11:42:09.499Z,38.54
2023-04-26T11:44:38.493Z,38.71
2023-04-26T11:47:06.869Z,38.56
2023-04-26T11:49:36.001Z,38.68
2023-04-26T11:52:04.973Z,38.78
2023-04-26T11:54:37.718Z,38.74
2023-04-26T11:57:17.258Z,38.85
2023-04-26T11:59:44.914Z,38.80
2023-04-26T12:02:11.977Z,39.00
2023-04-26T12:04:42.217Z,38.84
2023-04-26T12:07:09.468Z,38.97
2023-04-26T12:09:41.720Z,38.98
2023-04-26T12:12:08.329Z,38.92
2023-04-26T12:14:39.295Z,38.92
2023-04-26T12:17:07.546Z,38.71
2023-04-26T12:19:38.237Z,38.63
2023-04-26T12:22:06.040Z,38.64
2023-04-26T12:24:38.849Z,38.72
2023-04-26T12:27:07.268Z,38.69
2023-04-26T12:29:34.783Z,38.61
2023-04-26T12:32:02.167Z,38.61
2023-04-26T12:34:28.911Z,38.84
2023-04-26T12:36:55.880Z,38.84
2023-04-26T12:39:22.556Z,38.84
2023-04-26T12:41:49.464Z,38.79
2023-04-26T12:44:16.304Z,38.69
2023-04-26T12:46:43.052Z,38.51
2023-04-26T12:49:09.760Z,38.54
2023-04-26T12:51:36.346Z,38.51
2023-04-26T12:54:03.020Z,38.55
2023-04-26T12:56:30.466Z,38.39
2023-04-26T12:58:57.159Z,38.37
2023-04-26T13:01:23.954Z,38.31
2023-04-26T13:03:50.916Z,38.25
2023-04-26T13:06:18.167Z,38.33
2023-04-26T13:08:44.797Z,38.29
2023-04-26T13:11:11.527Z,38.24
2023-04-26T13:13:43.883Z,38.31
2023-04-26T13:16:12.580Z,38.18
2023-04-26T13:18:39.434Z,38.33
2023-04-26T13:21:06.024Z,38.09
2023-04-26T13:23:32.568Z,38.05
2023-04-26T13:25:59.151Z,38.05
2023-04-26T13:28:25.694Z,38.13
2023-04-26T13:30:52.536Z,38.02
2023-04-26T13:33:21.445Z,37.86
2023-04-26T13:35:48.431Z,37.83
2023-04-26T13:38:16.059Z,37.89
2023-04-26T13:40:43.245Z,37.78
2023-04-26T13:43:09.838Z,37.77
2023-04-26T13:45:36.760Z,37.84
2023-04-26T13:48:03.967Z,37.81
2023-04-26T13:50:30.782Z,37.90
2023-04-26T13:52:57.462Z,37.83
2023-04-26T13:55:24.215Z,37.81
2023-04-26T13:57:50.739Z,37.97
2023-04-26T14:00:17.693Z,37.73
2023-04-26T14:02:44.450Z,37.39
2023-04-26T14:05:11.277Z,37.45
2023-04-26T14:07:38.008Z,37.23
2023-04-26T14:10:04.767Z,37.45
2023-04-26T14:12:31.610Z,37.44
2023-04-26T14:14:58.153Z,37.29
2023-04-26T14:17:25.763Z,37.30
2023-04-26T14:19:54.556Z,37.16
2023-04-26T14:22:21.429Z,37.19
2023-04-26T14:24:48.093Z,37.17
2023-04-26T14:27:14.683Z,37.17
2023-04-26T14:29:41.205Z,37.28
2023-04-26T14:32:07.863Z,37.44
2023-04-26T14:34:38.999Z,37.20
2023-04-26T14:37:06.765Z,37.19
2023-04-26T14:39:33.287Z,37.08
2023-04-26T14:41:59.782Z,36.86
2023-04-26T14:44:26.918Z,36.80
2023-04-26T14:46:53.615Z,36.84
2023-04-26T14:49:20.589Z,36.79
2023-04-26T14:51:47.454Z,36.86
2023-04-26T14:54:14.041Z,36.79
2023-04-26T14:56:40.556Z,36.86
2023-04-26T14:59:08.121Z,36.91
2023-04-26T15:01:34.776Z,36.92
2023-04-26T15:04:01.867Z,37.07
2023-04-26T15:06:29.072Z,37.00
2023-04-26T15:08:55.597Z,37.11
2023-04-26T15:11:22.095Z,37.30
2023-04-26T15:13:48.706Z,37.35
2023-04-26T15:16:16.290Z,37.42
2023-04-26T15:18:42.886Z,37.06
2023-04-26T15:21:09.401Z,37.27
2023-04-26T15:23:36.061Z,37.18
2023-04-26T15:26:03.664Z,37.33
2023-04-26T15:28:30.465Z,37.34
2023-04-26T15:31:04.612Z,37.49
2023-04-26T15:33:31.812Z,37.43
2023-04-26T15:35:58.531Z,37.38
2023-04-26T15:38:25.057Z,37.35
2023-04-26T15:40:51.774Z,37.32
2023-04-26T15:43:18.498Z,37.21
2023-04-26T15:45:45.604Z,37.17
2023-04-26T15:48:12.347Z,37.10
2023-04-26T15:50:38.916Z,37.14
2023-04-26T15:53:05.426Z,37.20
2023-04-26T15:55:32.527Z,37.22
2023-04-26T15:57:59.151Z,37.13
2023-04-26T16:00:26.887Z,37.17
2023-04-26T16:02:53.505Z,37.14
2023-04-26T16:05:20.423Z,37.01
2023-04-26T16:07:46.920Z,37.00
2023-04-26T16:10:13.532Z,36.91
2023-04-26T16:12:41.724Z,36.88
2023-04-26T16:15:12.135Z,36.59
2023-04-26T16:17:39.375Z,36.43
2023-04-26T16:20:07.278Z,36.31
2023-04-26T16:22:34.865Z,36.59
2023-04-26T16:25:01.964Z,36.47
2023-04-26T16:27:28.535Z,36.53
2023-04-26T16:29:55.097Z,36.51
2023-04-26T16:32:22.161Z,36.66
2023-04-26T16:34:48.713Z,36.57
2023-04-26T16:37:15.446Z,36.52
2023-04-26T16:39:41.992Z,36.58
2023-04-26T16:42:08.662Z,36.43
2023-04-26T16:44:35.398Z,36.51
2023-04-26T16:47:02.249Z,36.56
2023-04-26T16:49:28.992Z,36.56
2023-04-26T16:51:58.863Z,36.56
2023-04-26T16:54:26.462Z,36.49
2023-04-26T16:56:53.510Z,36.40
2023-04-26T16:59:20.577Z,36.33
2023-04-26T17:01:47.319Z,36.40
2023-04-26T17:04:14.334Z,36.16
2023-04-26T17:06:41.203Z,36.10
2023-04-26T17:09:08.699Z,36.06
2023-04-26T17:11:37.348Z,36.02
2023-04-26T17:14:04.572Z,35.84
2023-04-26T17:16:31.704Z,35.94
2023-04-26T17:18:58.571Z,35.97
2023-04-26T17:21:25.464Z,36.06
2023-04-26T17:23:52.518Z,36.21
2023-04-26T17:26:19.205Z,35.99
2023-04-26T17:28:45.828Z,35.98
2023-04-26T17:31:12.398Z,36.14
2023-04-26T17:33:39.012Z,36.05
2023-04-26T17:36:06.252Z,36.16
2023-04-26T17:38:32.951Z,36.17
2023-04-26T17:40:59.714Z,36.17
2023-04-26T17:43:26.247Z,36.22
2023-04-26T17:45:52.953Z,36.18
2023-04-26T17:48:19.653Z,36.18
2023-04-26T17:50:46.391Z,36.31
2023-04-26T17:53:13.098Z,36.19
2023-04-26T17:55:40.564Z,36.24
2023-04-26T17:58:07.083Z,36.16
2023-04-26T18:00:33.784Z,36.16
2023-04-26T18:03:02.959Z,36.19
2023-04-26T18:05:29.641Z,36.31
2023-04-26T18:07:56.607Z,36.16
2023-04-26T18:10:23.285Z,36.16
2023-04-26T18:12:49.938Z,36.05
2023-04-26T18:15:16.454Z,36.07
2023-04-26T18:17:43.617Z,36.08
2023-04-26T18:20:13.012Z,36.08
2023-04-26T18:22:40.364Z,36.04
2023-04-26T18:25:07.366Z,36.08
2023-04-26T18:27:33.957Z,36.08
2023-04-26T18:30:00.704Z,35.98
2023-04-26T18:32:27.258Z,35.90
2023-04-26T18:34:54.040Z,35.86
2023-04-26T18:37:20.557Z,36.00
2023-04-26T18:39:47.202Z,35.78
2023-04-26T18:42:13.896Z,35.85
2023-04-26T18:44:40.580Z,35.93
2023-04-26T18:47:07.236Z,35.73
2023-04-26T18:49:33.763Z,35.60
2023-04-26T18:52:01.717Z,35.67
2023-04-26T18:54:28.372Z,35.65
2023-04-26T18:56:54.858Z,35.71
2023-04-26T18:59:21.329Z,35.68
2023-04-26T19:01:49.211Z,35.80
2023-04-26T19:04:15.984Z,35.71
2023-04-26T19:06:42.726Z,35.86
2023-04-26T19:09:11.584Z,35.73
2023-04-26T19:11:38.342Z,35.66
2023-04-26T19:14:04.872Z,35.73
2023-04-26T19:16:31.493Z,35.75
2023-04-26T19:18:58.177Z,35.72
2023-04-26T19:21:24.782Z,35.80
2023-04-26T19:23:51.303Z,35.90
2023-04-26T19:26:18.042Z,35.76
2023-04-26T19:28:44.645Z,35.82
2023-04-26T19:31:11.373Z,35.66
2023-04-26T19:33:38.224Z,35.82
2023-04-26T19:36:05.013Z,35.77
2023-04-26T19:38:31.717Z,35.61
2023-04-26T19:40:58.256Z,35.78
2023-04-26T19:43:24.840Z,35.78
2023-04-26T19:45:51.393Z,35.79
2023-04-26T19:48:17.930Z,35.84
2023-04-26T19:50:46.304Z,35.95
2023-04-26T19:53:14.464Z,35.79
2023-04-26T19:55:42.471Z,35.87
2023-04-26T19:58:10.841Z,35.96
2023-04-26T20:00:38.864Z,35.92
2023-04-26T20:03:06.457Z,35.87
2023-04-26T20:05:33.759Z,35.92
2023-04-26T20:08:00.989Z,35.89
2023-04-26T20:10:30.960Z,36.03
2023-04-26T20:12:57.643Z,35.94
2023-04-26T20:15:24.234Z,35.81
2023-04-26T20:17:51.012Z,35.91
2023-04-26T20:20:17.747Z,35.99
2023-04-26T20:22:44.525Z,35.91
2023-04-26T20:25:11.267Z,35.55
2023-04-26T20:27:38.562Z,35.43
2023-04-26T20:30:05.807Z,35.33
2023-04-26T20:32:32.570Z,35.44
2023-04-26T20:34:59.127Z,35.47
2023-04-26T20:37:25.742Z,35.55
2023-04-26T20:39:52.323Z,35.57
2023-04-26T20:42:18.932Z,35.49
2023-04-26T20:44:45.804Z,35.61
2023-04-26T20:47:13.038Z,35.58
2023-04-26T20:49:39.531Z,35.61
2023-04-26T20:52:06.098Z,35.74
2023-04-26T20:54:32.807Z,35.62
2023-04-26T20:56:59.500Z,35.63
2023-04-26T20:59:26.083Z,35.42
2023-04-26T21:01:53.717Z,35.71
2023-04-26T21:04:20.921Z,35.61
2023-04-26T21:06:47.655Z,35.62
2023-04-26T21:09:14.224Z,35.48
2023-04-26T21:11:40.878Z,35.49
2023-04-26T21:14:07.490Z,35.48
2023-04-26T21:16:33.976Z,35.51
2023-04-26T21:19:00.561Z,35.50
2023-04-26T21:21:28.694Z,35.43
2023-04-26T21:23:55.459Z,35.36
2023-04-26T21:26:22.037Z,35.26
2023-04-26T21:28:48.717Z,35.26
2023-04-26T21:31:15.650Z,35.43
2023-04-26T21:33:42.245Z,35.24
2023-04-26T21:36:09.128Z,35.23
2023-04-26T21:38:35.731Z,35.17
2023-04-26T21:41:02.240Z,35.39
2023-04-26T21:43:28.759Z,35.32
2023-04-26T21:45:58.692Z,35.23
2023-04-26T21:48:26.424Z,35.27
2023-04-26T21:50:53.117Z,35.10
2023-04-26T21:53:19.631Z,35.29
2023-04-26T21:55:51.660Z,35.26
2023-04-26T21:58:19.118Z,35.25
2023-04-26T22:00:46.728Z,35.21
2023-04-26T22:03:14.214Z,35.22
2023-04-26T22:05:41.016Z,35.15
2023-04-26T22:08:07.720Z,35.12
2023-04-26T22:10:34.674Z,35.12
2023-04-26T22:13:01.210Z,35.01
2023-04-26T22:15:27.973Z,35.18
2023-04-26T22:17:54.507Z,35.08
2023-04-26T22:20:21.586Z,35.07
2023-04-26T22:22:48.347Z,35.10
2023-04-26T22:25:14.926Z,34.95
2023-04-26T22:27:41.488Z,35.02
2023-04-26T22:30:22.987Z,34.95
2023-04-26T22:32:54.852Z,35.02
2023-04-26T22:35:21.656Z,35.05
2023-04-26T22:37:48.182Z,34.95
2023-04-26T22:40:16.209Z,35.05
2023-04-26T22:42:43.119Z,34.88
2023-04-26T22:45:10.828Z,34.84
2023-04-26T22:47:37.534Z,34.79
2023-04-26T22:50:05.136Z,34.79
2023-04-26T22:52:32.222Z,34.70
2023-04-26T22:55:00.013Z,34.77
2023-04-26T22:57:27.106Z,34.87
2023-04-26T22:59:53.673Z,34.98
2023-04-26T23:02:20.928Z,34.80
2023-04-26T23:04:48.675Z,34.84
2023-04-26T23:07:16.386Z,34.72
2023-04-26T23:09:43.138Z,34.75
2023-04-26T23:12:09.875Z,34.71
2023-04-26T23:14:36.463Z,34.91
2023-04-26T23:17:03.191Z,34.90
2023-04-26T23:19:29.804Z,34.78
2023-04-26T23:21:56.416Z,34.84
2023-04-26T23:24:22.950Z,34.70
2023-04-26T23:26:49.579Z,34.91
2023-04-26T23:29:16.178Z,35.00
2023-04-26T23:31:43.076Z,34.91
2023-04-26T23:34:09.740Z,34.87
2023-04-26T23:36:36.512Z,34.99
2023-04-26T23:39:03.338Z,34.89
2023-04-26T23:41:29.848Z,34.86
2023-04-26T23:43:56.478Z,35.02
2023-04-26T23:46:23.127Z,35.04
2023-04-26T23:48:49.685Z,34.80
2023-04-26T23:51:16.323Z,34.88
2023-04-26T23:53:43.852Z,34.78
2023-04-26T23:56:10.626Z,34.81
2023-04-26T23:58:37.173Z,34.91
